sensor_id;sensor_type;location;lat;lon;timestamp;temperature;humidity
37052;DHT22;22964;52.272;13.356;2024-01-16T00:01:23;5.00;75.60
37052;DHT22;22964;52.272;13.356;2024-01-16T00:03:49;4.90;75.60
37052;DHT22;22964;52.272;13.356;2024-01-16T00:06:16;5.00;75.70
37052;DHT22;22964;52.272;13.356;2024-01-16T00:08:42;4.90;75.70
37052;DHT22;22964;52.272;13.356;2024-01-16T00:11:07;5.00;75.90
37052;DHT22;22964;52.272;13.356;2024-01-16T00:13:33;5.00;76.00
37052;DHT22;22964;52.272;13.356;2024-01-16T00:16:01;5.00;76.10
37052;DHT22;22964;52.272;13.356;2024-01-16T00:18:27;4.90;76.00
37052;DHT22;22964;52.272;13.356;2024-01-16T00:20:52;5.00;76.00
37052;DHT22;22964;52.272;13.356;2024-01-16T00:23:18;5.00;76.10
37052;DHT22;22964;52.272;13.356;2024-01-16T00:25:43;5.00;76.10
37052;DHT22;22964;52.272;13.356;2024-01-16T00:28:09;5.00;76.10
37052;DHT22;22964;52.272;13.356;2024-01-16T00:30:35;5.00;76.10
37052;DHT22;22964;52.272;13.356;2024-01-16T00:33:01;5.00;76.10
37052;DHT22;22964;52.272;13.356;2024-01-16T00:35:28;5.00;76.00
37052;DHT22;22964;52.272;13.356;2024-01-16T00:37:54;4.90;75.80
37052;DHT22;22964;52.272;13.356;2024-01-16T00:40:19;5.00;75.80
37052;DHT22;22964;52.272;13.356;2024-01-16T00:42:45;5.00;75.80
37052;DHT22;22964;52.272;13.356;2024-01-16T00:45:11;5.00;75.90
37052;DHT22;22964;52.272;13.356;2024-01-16T00:47:36;5.00;75.90
37052;DHT22;22964;52.272;13.356;2024-01-16T00:50:02;5.00;76.00
37052;DHT22;22964;52.272;13.356;2024-01-16T00:52:28;5.00;76.00
37052;DHT22;22964;52.272;13.356;2024-01-16T00:54:54;5.00;76.00
37052;DHT22;22964;52.272;13.356;2024-01-16T00:57:20;5.00;76.10
37052;DHT22;22964;52.272;13.356;2024-01-16T00:59:46;5.00;76.10
37052;DHT22;22964;52.272;13.356;2024-01-16T01:02:12;5.00;76.10
37052;DHT22;22964;52.272;13.356;2024-01-16T01:04:38;5.00;76.10
37052;DHT22;22964;52.272;13.356;2024-01-16T01:07:04;5.00;76.00
37052;DHT22;22964;52.272;13.356;2024-01-16T01:09:32;5.00;75.90
37052;DHT22;22964;52.272;13.356;2024-01-16T01:11:58;5.00;75.70
37052;DHT22;22964;52.272;13.356;2024-01-16T01:14:24;5.00;76.60
37052;DHT22;22964;52.272;13.356;2024-01-16T01:16:51;5.00;75.90
37052;DHT22;22964;52.272;13.356;2024-01-16T01:19:17;5.00;75.90
37052;DHT22;22964;52.272;13.356;2024-01-16T01:21:42;5.00;76.00
37052;DHT22;22964;52.272;13.356;2024-01-16T01:24:08;5.00;76.00
37052;DHT22;22964;52.272;13.356;2024-01-16T01:26:34;5.00;76.10
37052;DHT22;22964;52.272;13.356;2024-01-16T01:29:01;5.00;76.20
37052;DHT22;22964;52.272;13.356;2024-01-16T01:31:27;5.00;76.40
37052;DHT22;22964;52.272;13.356;2024-01-16T01:33:52;5.00;76.60
37052;DHT22;22964;52.272;13.356;2024-01-16T01:36:18;5.00;76.90
37052;DHT22;22964;52.272;13.356;2024-01-16T01:38:44;5.00;77.30
37052;DHT22;22964;52.272;13.356;2024-01-16T01:41:10;5.00;77.40
37052;DHT22;22964;52.272;13.356;2024-01-16T01:43:37;5.00;77.70
37052;DHT22;22964;52.272;13.356;2024-01-16T01:46:18;5.00;78.20
37052;DHT22;22964;52.272;13.356;2024-01-16T01:48:46;5.00;78.20
37052;DHT22;22964;52.272;13.356;2024-01-16T01:51:14;5.00;78.40
37052;DHT22;22964;52.272;13.356;2024-01-16T01:53:42;5.00;78.10
37052;DHT22;22964;52.272;13.356;2024-01-16T01:56:11;5.00;77.50
37052;DHT22;22964;52.272;13.356;2024-01-16T01:58:39;5.10;77.20
37052;DHT22;22964;52.272;13.356;2024-01-16T02:01:07;5.00;76.90
37052;DHT22;22964;52.272;13.356;2024-01-16T02:03:39;4.90;76.50
37052;DHT22;22964;52.272;13.356;2024-01-16T02:06:07;4.90;76.30
37052;DHT22;22964;52.272;13.356;2024-01-16T02:08:33;4.90;76.20
37052;DHT22;22964;52.272;13.356;2024-01-16T02:10:58;4.80;76.10
37052;DHT22;22964;52.272;13.356;2024-01-16T02:13:24;4.80;76.00
37052;DHT22;22964;52.272;13.356;2024-01-16T02:15:50;4.80;75.90
37052;DHT22;22964;52.272;13.356;2024-01-16T02:18:17;4.70;75.90
37052;DHT22;22964;52.272;13.356;2024-01-16T02:20:43;4.70;75.80
37052;DHT22;22964;52.272;13.356;2024-01-16T02:23:10;4.70;75.80
37052;DHT22;22964;52.272;13.356;2024-01-16T02:25:39;4.70;75.70
37052;DHT22;22964;52.272;13.356;2024-01-16T02:28:05;4.60;75.70
37052;DHT22;22964;52.272;13.356;2024-01-16T02:30:31;4.60;75.70
37052;DHT22;22964;52.272;13.356;2024-01-16T02:32:57;4.60;75.60
37052;DHT22;22964;52.272;13.356;2024-01-16T02:35:22;4.60;75.60
37052;DHT22;22964;52.272;13.356;2024-01-16T02:37:48;4.60;75.50
37052;DHT22;22964;52.272;13.356;2024-01-16T02:40:14;4.60;75.50
37052;DHT22;22964;52.272;13.356;2024-01-16T02:42:40;4.50;75.50
37052;DHT22;22964;52.272;13.356;2024-01-16T02:45:06;4.50;75.30
37052;DHT22;22964;52.272;13.356;2024-01-16T02:47:33;4.50;75.10
37052;DHT22;22964;52.272;13.356;2024-01-16T02:49:59;4.50;75.00
37052;DHT22;22964;52.272;13.356;2024-01-16T02:52:26;4.40;75.00
37052;DHT22;22964;52.272;13.356;2024-01-16T02:54:52;4.40;74.80
37052;DHT22;22964;52.272;13.356;2024-01-16T02:57:18;4.40;74.70
37052;DHT22;22964;52.272;13.356;2024-01-16T02:59:44;4.40;74.70
37052;DHT22;22964;52.272;13.356;2024-01-16T03:02:10;4.40;74.70
37052;DHT22;22964;52.272;13.356;2024-01-16T03:04:37;4.30;74.60
37052;DHT22;22964;52.272;13.356;2024-01-16T03:07:03;4.30;74.50
37052;DHT22;22964;52.272;13.356;2024-01-16T03:09:28;4.30;74.40
37052;DHT22;22964;52.272;13.356;2024-01-16T03:11:54;4.30;74.30
37052;DHT22;22964;52.272;13.356;2024-01-16T03:14:20;4.20;74.20
37052;DHT22;22964;52.272;13.356;2024-01-16T03:16:46;4.20;74.20
37052;DHT22;22964;52.272;13.356;2024-01-16T03:19:12;4.20;74.20
37052;DHT22;22964;52.272;13.356;2024-01-16T03:21:38;4.10;74.30
37052;DHT22;22964;52.272;13.356;2024-01-16T03:24:05;4.10;74.30
37052;DHT22;22964;52.272;13.356;2024-01-16T03:26:33;4.10;74.30
37052;DHT22;22964;52.272;13.356;2024-01-16T03:28:59;4.10;74.40
37052;DHT22;22964;52.272;13.356;2024-01-16T03:31:25;4.10;74.40
37052;DHT22;22964;52.272;13.356;2024-01-16T03:33:51;4.10;74.40
37052;DHT22;22964;52.272;13.356;2024-01-16T03:36:17;4.10;74.50
37052;DHT22;22964;52.272;13.356;2024-01-16T03:38:43;4.10;74.60
37052;DHT22;22964;52.272;13.356;2024-01-16T03:41:10;4.10;74.70
37052;DHT22;22964;52.272;13.356;2024-01-16T03:43:36;4.10;74.80
37052;DHT22;22964;52.272;13.356;2024-01-16T03:46:02;4.00;74.80
37052;DHT22;22964;52.272;13.356;2024-01-16T03:48:28;4.10;74.80
37052;DHT22;22964;52.272;13.356;2024-01-16T03:50:55;4.10;74.70
37052;DHT22;22964;52.272;13.356;2024-01-16T03:53:21;4.00;74.50
37052;DHT22;22964;52.272;13.356;2024-01-16T03:55:47;4.10;74.60
37052;DHT22;22964;52.272;13.356;2024-01-16T03:58:13;4.00;75.30
37052;DHT22;22964;52.272;13.356;2024-01-16T04:00:39;4.00;74.40
37052;DHT22;22964;52.272;13.356;2024-01-16T04:03:05;4.00;74.30
37052;DHT22;22964;52.272;13.356;2024-01-16T04:05:33;4.00;74.30
37052;DHT22;22964;52.272;13.356;2024-01-16T04:07:58;3.90;74.20
37052;DHT22;22964;52.272;13.356;2024-01-16T04:10:24;3.90;74.20
37052;DHT22;22964;52.272;13.356;2024-01-16T04:12:50;3.90;74.10
37052;DHT22;22964;52.272;13.356;2024-01-16T04:15:15;3.90;74.10
37052;DHT22;22964;52.272;13.356;2024-01-16T04:17:41;3.90;74.30
37052;DHT22;22964;52.272;13.356;2024-01-16T04:20:07;3.90;74.30
37052;DHT22;22964;52.272;13.356;2024-01-16T04:22:33;3.80;74.30
37052;DHT22;22964;52.272;13.356;2024-01-16T04:24:59;3.80;74.30
37052;DHT22;22964;52.272;13.356;2024-01-16T04:27:25;3.80;74.30
37052;DHT22;22964;52.272;13.356;2024-01-16T04:29:51;3.80;74.30
37052;DHT22;22964;52.272;13.356;2024-01-16T04:32:17;3.80;74.30
37052;DHT22;22964;52.272;13.356;2024-01-16T04:34:43;3.70;74.20
37052;DHT22;22964;52.272;13.356;2024-01-16T04:37:08;3.70;74.10
37052;DHT22;22964;52.272;13.356;2024-01-16T04:39:34;3.70;74.10
37052;DHT22;22964;52.272;13.356;2024-01-16T04:42:00;3.70;74.10
37052;DHT22;22964;52.272;13.356;2024-01-16T04:44:25;3.70;74.00
37052;DHT22;22964;52.272;13.356;2024-01-16T04:46:51;3.60;74.10
37052;DHT22;22964;52.272;13.356;2024-01-16T04:49:18;3.60;74.20
37052;DHT22;22964;52.272;13.356;2024-01-16T04:51:43;3.60;74.20
37052;DHT22;22964;52.272;13.356;2024-01-16T04:54:11;3.60;74.30
37052;DHT22;22964;52.272;13.356;2024-01-16T04:56:37;3.60;74.30
37052;DHT22;22964;52.272;13.356;2024-01-16T04:59:03;3.50;74.30
37052;DHT22;22964;52.272;13.356;2024-01-16T05:09:05;3.50;74.30
37052;DHT22;22964;52.272;13.356;2024-01-16T05:11:31;3.50;74.30
37052;DHT22;22964;52.272;13.356;2024-01-16T05:13:56;3.40;74.30
37052;DHT22;22964;52.272;13.356;2024-01-16T05:16:25;3.40;74.30
37052;DHT22;22964;52.272;13.356;2024-01-16T05:18:52;3.30;74.20
37052;DHT22;22964;52.272;13.356;2024-01-16T05:21:18;3.30;74.30
37052;DHT22;22964;52.272;13.356;2024-01-16T05:23:44;3.30;74.20
37052;DHT22;22964;52.272;13.356;2024-01-16T05:26:10;3.20;74.20
37052;DHT22;22964;52.272;13.356;2024-01-16T05:28:35;3.30;74.30
37052;DHT22;22964;52.272;13.356;2024-01-16T05:31:01;3.20;74.30
37052;DHT22;22964;52.272;13.356;2024-01-16T05:33:27;3.20;74.40
37052;DHT22;22964;52.272;13.356;2024-01-16T05:35:53;3.20;74.60
37052;DHT22;22964;52.272;13.356;2024-01-16T05:38:19;3.20;74.80
37052;DHT22;22964;52.272;13.356;2024-01-16T05:40:44;3.20;74.90
37052;DHT22;22964;52.272;13.356;2024-01-16T05:43:10;3.10;75.00
37052;DHT22;22964;52.272;13.356;2024-01-16T05:45:36;3.20;75.10
37052;DHT22;22964;52.272;13.356;2024-01-16T05:48:01;3.10;75.10
37052;DHT22;22964;52.272;13.356;2024-01-16T05:50:27;3.20;75.20
37052;DHT22;22964;52.272;13.356;2024-01-16T05:52:53;3.20;75.30
37052;DHT22;22964;52.272;13.356;2024-01-16T05:55:19;3.20;75.30
37052;DHT22;22964;52.272;13.356;2024-01-16T05:57:46;3.10;75.20
37052;DHT22;22964;52.272;13.356;2024-01-16T06:00:13;3.10;75.20
37052;DHT22;22964;52.272;13.356;2024-01-16T06:02:38;3.10;75.20
37052;DHT22;22964;52.272;13.356;2024-01-16T06:05:04;3.10;75.20
37052;DHT22;22964;52.272;13.356;2024-01-16T06:07:31;3.10;75.20
37052;DHT22;22964;52.272;13.356;2024-01-16T06:09:57;3.00;75.20
37052;DHT22;22964;52.272;13.356;2024-01-16T06:12:22;3.00;75.10
37052;DHT22;22964;52.272;13.356;2024-01-16T06:14:48;3.00;75.00
37052;DHT22;22964;52.272;13.356;2024-01-16T06:17:14;3.00;74.90
37052;DHT22;22964;52.272;13.356;2024-01-16T06:19:39;3.00;75.00
37052;DHT22;22964;52.272;13.356;2024-01-16T06:22:05;2.90;74.70
37052;DHT22;22964;52.272;13.356;2024-01-16T06:24:31;2.80;74.60
37052;DHT22;22964;52.272;13.356;2024-01-16T06:27:06;2.90;74.70
37052;DHT22;22964;52.272;13.356;2024-01-16T06:29:32;2.80;74.70
37052;DHT22;22964;52.272;13.356;2024-01-16T06:31:58;2.80;74.80
37052;DHT22;22964;52.272;13.356;2024-01-16T06:34:24;2.80;75.00
37052;DHT22;22964;52.272;13.356;2024-01-16T06:36:50;2.70;75.00
37052;DHT22;22964;52.272;13.356;2024-01-16T06:39:16;2.80;75.30
37052;DHT22;22964;52.272;13.356;2024-01-16T06:41:41;2.70;75.40
37052;DHT22;22964;52.272;13.356;2024-01-16T06:44:07;2.70;75.60
37052;DHT22;22964;52.272;13.356;2024-01-16T06:46:34;2.70;75.90
37052;DHT22;22964;52.272;13.356;2024-01-16T06:49:00;2.70;76.20
37052;DHT22;22964;52.272;13.356;2024-01-16T06:51:27;2.70;76.40
37052;DHT22;22964;52.272;13.356;2024-01-16T06:53:52;2.70;76.60
37052;DHT22;22964;52.272;13.356;2024-01-16T06:56:18;2.70;76.60
37052;DHT22;22964;52.272;13.356;2024-01-16T06:58:44;2.80;76.80
37052;DHT22;22964;52.272;13.356;2024-01-16T07:01:10;2.80;76.90
37052;DHT22;22964;52.272;13.356;2024-01-16T07:03:35;2.80;77.00
37052;DHT22;22964;52.272;13.356;2024-01-16T07:06:01;2.80;77.10
37052;DHT22;22964;52.272;13.356;2024-01-16T07:08:28;2.80;78.00
37052;DHT22;22964;52.272;13.356;2024-01-16T07:10:53;2.80;77.20
37052;DHT22;22964;52.272;13.356;2024-01-16T07:13:19;2.90;77.30
37052;DHT22;22964;52.272;13.356;2024-01-16T07:15:45;2.90;77.30
37052;DHT22;22964;52.272;13.356;2024-01-16T07:18:11;2.90;77.50
37052;DHT22;22964;52.272;13.356;2024-01-16T07:20:37;2.90;77.50
37052;DHT22;22964;52.272;13.356;2024-01-16T07:23:04;3.00;77.70
37052;DHT22;22964;52.272;13.356;2024-01-16T07:25:30;3.00;77.70
37052;DHT22;22964;52.272;13.356;2024-01-16T07:27:56;3.00;77.70
37052;DHT22;22964;52.272;13.356;2024-01-16T07:30:22;3.10;77.80
37052;DHT22;22964;52.272;13.356;2024-01-16T07:32:47;3.10;77.90
37052;DHT22;22964;52.272;13.356;2024-01-16T07:35:14;3.20;78.00
37052;DHT22;22964;52.272;13.356;2024-01-16T07:37:40;3.20;78.00
37052;DHT22;22964;52.272;13.356;2024-01-16T07:40:07;3.20;78.10
37052;DHT22;22964;52.272;13.356;2024-01-16T07:42:35;3.20;78.00
37052;DHT22;22964;52.272;13.356;2024-01-16T07:45:02;3.30;78.10
37052;DHT22;22964;52.272;13.356;2024-01-16T07:47:33;3.30;78.10
37052;DHT22;22964;52.272;13.356;2024-01-16T07:49:59;3.40;78.20
37052;DHT22;22964;52.272;13.356;2024-01-16T07:52:27;3.40;78.20
37052;DHT22;22964;52.272;13.356;2024-01-16T07:54:53;3.40;78.20
37052;DHT22;22964;52.272;13.356;2024-01-16T07:57:19;3.40;78.10
37052;DHT22;22964;52.272;13.356;2024-01-16T07:59:44;3.50;78.20
37052;DHT22;22964;52.272;13.356;2024-01-16T08:02:10;3.60;78.30
37052;DHT22;22964;52.272;13.356;2024-01-16T08:04:36;3.60;78.30
37052;DHT22;22964;52.272;13.356;2024-01-16T08:07:02;3.60;78.30
37052;DHT22;22964;52.272;13.356;2024-01-16T08:09:27;3.70;78.30
37052;DHT22;22964;52.272;13.356;2024-01-16T08:11:53;3.70;78.30
37052;DHT22;22964;52.272;13.356;2024-01-16T08:14:19;3.70;78.30
37052;DHT22;22964;52.272;13.356;2024-01-16T08:16:45;3.80;78.30
37052;DHT22;22964;52.272;13.356;2024-01-16T08:19:10;3.80;78.20
37052;DHT22;22964;52.272;13.356;2024-01-16T08:21:36;3.80;78.20
37052;DHT22;22964;52.272;13.356;2024-01-16T08:24:02;3.80;78.10
37052;DHT22;22964;52.272;13.356;2024-01-16T08:26:28;3.90;78.20
37052;DHT22;22964;52.272;13.356;2024-01-16T08:28:54;3.90;78.10
37052;DHT22;22964;52.272;13.356;2024-01-16T08:31:20;3.90;78.10
37052;DHT22;22964;52.272;13.356;2024-01-16T08:33:46;3.90;78.10
37052;DHT22;22964;52.272;13.356;2024-01-16T08:36:14;4.00;78.20
37052;DHT22;22964;52.272;13.356;2024-01-16T08:38:40;4.00;78.30
37052;DHT22;22964;52.272;13.356;2024-01-16T08:41:06;4.00;78.30
37052;DHT22;22964;52.272;13.356;2024-01-16T08:43:33;4.10;78.40
37052;DHT22;22964;52.272;13.356;2024-01-16T08:45:59;4.10;78.40
37052;DHT22;22964;52.272;13.356;2024-01-16T08:48:25;4.10;78.40
37052;DHT22;22964;52.272;13.356;2024-01-16T08:50:52;4.20;78.40
37052;DHT22;22964;52.272;13.356;2024-01-16T08:53:20;4.20;78.40
37052;DHT22;22964;52.272;13.356;2024-01-16T08:55:46;4.10;78.40
37052;DHT22;22964;52.272;13.356;2024-01-16T08:58:12;4.20;78.40
37052;DHT22;22964;52.272;13.356;2024-01-16T09:00:37;4.30;78.50
37052;DHT22;22964;52.272;13.356;2024-01-16T09:03:04;4.30;78.50
37052;DHT22;22964;52.272;13.356;2024-01-16T09:05:30;4.30;78.50
37052;DHT22;22964;52.272;13.356;2024-01-16T09:07:55;4.40;79.30
37052;DHT22;22964;52.272;13.356;2024-01-16T09:10:21;4.40;78.40
37052;DHT22;22964;52.272;13.356;2024-01-16T09:12:47;4.40;78.40
37052;DHT22;22964;52.272;13.356;2024-01-16T09:15:14;4.40;78.50
37052;DHT22;22964;52.272;13.356;2024-01-16T09:17:39;4.50;78.50
37052;DHT22;22964;52.272;13.356;2024-01-16T09:20:06;4.50;78.50
37052;DHT22;22964;52.272;13.356;2024-01-16T09:22:32;4.50;78.50
37052;DHT22;22964;52.272;13.356;2024-01-16T09:24:58;4.50;78.40
37052;DHT22;22964;52.272;13.356;2024-01-16T09:27:24;4.60;78.40
37052;DHT22;22964;52.272;13.356;2024-01-16T09:29:49;4.60;78.30
37052;DHT22;22964;52.272;13.356;2024-01-16T09:32:15;4.60;78.40
37052;DHT22;22964;52.272;13.356;2024-01-16T09:34:41;4.70;78.40
37052;DHT22;22964;52.272;13.356;2024-01-16T09:37:06;4.70;78.30
37052;DHT22;22964;52.272;13.356;2024-01-16T09:39:32;4.70;78.30
37052;DHT22;22964;52.272;13.356;2024-01-16T09:42:00;4.70;78.30
37052;DHT22;22964;52.272;13.356;2024-01-16T09:44:29;4.80;78.30
37052;DHT22;22964;52.272;13.356;2024-01-16T09:46:55;4.80;78.30
37052;DHT22;22964;52.272;13.356;2024-01-16T09:49:23;4.80;78.20
37052;DHT22;22964;52.272;13.356;2024-01-16T09:51:49;4.90;78.20
37052;DHT22;22964;52.272;13.356;2024-01-16T09:54:15;4.90;78.20
37052;DHT22;22964;52.272;13.356;2024-01-16T09:56:44;4.90;78.10
37052;DHT22;22964;52.272;13.356;2024-01-16T09:59:15;5.00;78.00
37052;DHT22;22964;52.272;13.356;2024-01-16T10:01:42;5.00;78.00
37052;DHT22;22964;52.272;13.356;2024-01-16T10:04:08;5.00;78.00
37052;DHT22;22964;52.272;13.356;2024-01-16T10:06:34;5.10;78.00
37052;DHT22;22964;52.272;13.356;2024-01-16T10:09:02;5.10;77.90
37052;DHT22;22964;52.272;13.356;2024-01-16T10:11:28;5.10;77.80
37052;DHT22;22964;52.272;13.356;2024-01-16T10:13:57;5.20;77.70
37052;DHT22;22964;52.272;13.356;2024-01-16T10:19:09;5.20;77.40
37052;DHT22;22964;52.272;13.356;2024-01-16T10:21:35;5.20;77.30
37052;DHT22;22964;52.272;13.356;2024-01-16T10:24:11;5.30;77.20
37052;DHT22;22964;52.272;13.356;2024-01-16T10:26:38;5.20;77.00
37052;DHT22;22964;52.272;13.356;2024-01-16T10:29:04;5.20;77.00
37052;DHT22;22964;52.272;13.356;2024-01-16T10:31:34;5.30;77.00
37052;DHT22;22964;52.272;13.356;2024-01-16T10:34:00;5.30;76.90
37052;DHT22;22964;52.272;13.356;2024-01-16T10:36:26;5.30;76.80
37052;DHT22;22964;52.272;13.356;2024-01-16T10:38:51;5.30;76.70
37052;DHT22;22964;52.272;13.356;2024-01-16T10:41:23;5.30;76.60
37052;DHT22;22964;52.272;13.356;2024-01-16T10:44:05;5.40;76.60
37052;DHT22;22964;52.272;13.356;2024-01-16T10:46:32;5.40;77.20
37052;DHT22;22964;52.272;13.356;2024-01-16T10:49:03;5.40;76.40
37052;DHT22;22964;52.272;13.356;2024-01-16T10:51:30;5.40;77.10
37052;DHT22;22964;52.272;13.356;2024-01-16T10:54:01;5.40;76.30
37052;DHT22;22964;52.272;13.356;2024-01-16T10:56:29;5.40;76.20
37052;DHT22;22964;52.272;13.356;2024-01-16T10:59:19;5.40;76.20
37052;DHT22;22964;52.272;13.356;2024-01-16T11:01:52;5.50;76.20
37052;DHT22;22964;52.272;13.356;2024-01-16T11:04:20;5.40;76.10
37052;DHT22;22964;52.272;13.356;2024-01-16T11:06:52;5.50;76.00
37052;DHT22;22964;52.272;13.356;2024-01-16T11:09:18;5.50;75.90
37052;DHT22;22964;52.272;13.356;2024-01-16T11:11:46;5.50;75.90
37052;DHT22;22964;52.272;13.356;2024-01-16T11:14:13;5.50;75.90
37052;DHT22;22964;52.272;13.356;2024-01-16T11:16:39;5.50;76.70
37052;DHT22;22964;52.272;13.356;2024-01-16T11:19:08;5.50;75.90
37052;DHT22;22964;52.272;13.356;2024-01-16T11:21:35;5.50;75.90
37052;DHT22;22964;52.272;13.356;2024-01-16T11:24:01;5.50;75.90
37052;DHT22;22964;52.272;13.356;2024-01-16T11:26:33;5.50;75.90
37052;DHT22;22964;52.272;13.356;2024-01-16T11:29:00;5.60;75.90
37052;DHT22;22964;52.272;13.356;2024-01-16T11:31:33;5.60;76.00
37052;DHT22;22964;52.272;13.356;2024-01-16T11:34:01;5.60;75.80
37052;DHT22;22964;52.272;13.356;2024-01-16T11:36:50;5.70;75.90
37052;DHT22;22964;52.272;13.356;2024-01-16T11:39:24;5.70;75.60
37052;DHT22;22964;52.272;13.356;2024-01-16T11:41:57;5.70;75.60
37052;DHT22;22964;52.272;13.356;2024-01-16T11:44:46;5.70;75.50
37052;DHT22;22964;52.272;13.356;2024-01-16T11:47:20;5.80;75.50
37052;DHT22;22964;52.272;13.356;2024-01-16T11:50:09;5.80;75.60
37052;DHT22;22964;52.272;13.356;2024-01-16T11:52:44;5.80;75.40
37052;DHT22;22964;52.272;13.356;2024-01-16T11:55:30;5.80;75.30
37052;DHT22;22964;52.272;13.356;2024-01-16T11:58:19;5.80;75.20
37052;DHT22;22964;52.272;13.356;2024-01-16T12:00:49;5.90;75.20
37052;DHT22;22964;52.272;13.356;2024-01-16T12:03:20;5.90;75.10
37052;DHT22;22964;52.272;13.356;2024-01-16T12:05:59;5.90;75.10
37052;DHT22;22964;52.272;13.356;2024-01-16T12:08:26;5.90;75.00
37052;DHT22;22964;52.272;13.356;2024-01-16T12:10:52;5.90;75.10
37052;DHT22;22964;52.272;13.356;2024-01-16T12:13:18;5.90;75.00
37052;DHT22;22964;52.272;13.356;2024-01-16T12:15:44;5.90;75.10
37052;DHT22;22964;52.272;13.356;2024-01-16T12:18:10;5.80;75.00
37052;DHT22;22964;52.272;13.356;2024-01-16T12:20:36;5.90;74.80
37052;DHT22;22964;52.272;13.356;2024-01-16T12:23:03;6.00;75.60
37052;DHT22;22964;52.272;13.356;2024-01-16T12:25:30;5.90;74.70
37052;DHT22;22964;52.272;13.356;2024-01-16T12:28:00;5.90;74.70
37052;DHT22;22964;52.272;13.356;2024-01-16T12:30:28;5.90;74.80
37052;DHT22;22964;52.272;13.356;2024-01-16T12:33:07;5.90;74.80
37052;DHT22;22964;52.272;13.356;2024-01-16T12:35:37;5.90;74.50
37052;DHT22;22964;52.272;13.356;2024-01-16T12:38:07;6.00;74.60
37052;DHT22;22964;52.272;13.356;2024-01-16T12:40:39;6.00;74.50
37052;DHT22;22964;52.272;13.356;2024-01-16T12:43:07;5.90;74.50
37052;DHT22;22964;52.272;13.356;2024-01-16T12:45:35;6.00;74.50
37052;DHT22;22964;52.272;13.356;2024-01-16T12:48:02;6.00;74.50
37052;DHT22;22964;52.272;13.356;2024-01-16T12:50:32;6.00;74.30
37052;DHT22;22964;52.272;13.356;2024-01-16T12:55:31;5.90;73.90
37052;DHT22;22964;52.272;13.356;2024-01-16T12:58:16;5.90;73.80
37052;DHT22;22964;52.272;13.356;2024-01-16T13:00:48;5.90;73.60
37052;DHT22;22964;52.272;13.356;2024-01-16T13:03:21;5.90;73.80
37052;DHT22;22964;52.272;13.356;2024-01-16T13:05:58;5.90;73.80
37052;DHT22;22964;52.272;13.356;2024-01-16T13:08:26;5.80;73.50
37052;DHT22;22964;52.272;13.356;2024-01-16T13:11:05;5.80;73.70
37052;DHT22;22964;52.272;13.356;2024-01-16T13:13:31;5.80;73.50
37052;DHT22;22964;52.272;13.356;2024-01-16T13:15:58;5.80;73.80
37052;DHT22;22964;52.272;13.356;2024-01-16T13:18:25;5.80;73.80
37052;DHT22;22964;52.272;13.356;2024-01-16T13:20:53;5.80;73.60
37052;DHT22;22964;52.272;13.356;2024-01-16T13:23:19;5.70;73.60
37052;DHT22;22964;52.272;13.356;2024-01-16T13:25:47;5.80;73.70
37052;DHT22;22964;52.272;13.356;2024-01-16T13:28:17;5.80;74.50
37052;DHT22;22964;52.272;13.356;2024-01-16T13:30:44;5.80;74.40
37052;DHT22;22964;52.272;13.356;2024-01-16T13:33:11;5.80;73.70
37052;DHT22;22964;52.272;13.356;2024-01-16T13:35:41;5.70;73.50
37052;DHT22;22964;52.272;13.356;2024-01-16T13:38:08;5.70;73.60
37052;DHT22;22964;52.272;13.356;2024-01-16T13:40:36;5.80;73.50
37052;DHT22;22964;52.272;13.356;2024-01-16T13:43:03;5.70;73.50
37052;DHT22;22964;52.272;13.356;2024-01-16T13:45:29;5.70;73.40
37052;DHT22;22964;52.272;13.356;2024-01-16T13:47:55;5.70;73.40
37052;DHT22;22964;52.272;13.356;2024-01-16T13:50:21;5.70;73.50
37052;DHT22;22964;52.272;13.356;2024-01-16T13:52:47;5.70;73.50
37052;DHT22;22964;52.272;13.356;2024-01-16T13:55:13;5.70;73.50
37052;DHT22;22964;52.272;13.356;2024-01-16T13:57:39;5.70;73.50
37052;DHT22;22964;52.272;13.356;2024-01-16T14:00:08;5.70;73.40
37052;DHT22;22964;52.272;13.356;2024-01-16T14:02:39;5.70;73.40
37052;DHT22;22964;52.272;13.356;2024-01-16T14:05:17;5.70;73.50
37052;DHT22;22964;52.272;13.356;2024-01-16T14:07:44;5.70;73.50
37052;DHT22;22964;52.272;13.356;2024-01-16T14:10:14;5.70;73.40
37052;DHT22;22964;52.272;13.356;2024-01-16T14:12:41;5.70;73.30
37052;DHT22;22964;52.272;13.356;2024-01-16T14:15:15;5.70;73.40
37052;DHT22;22964;52.272;13.356;2024-01-16T14:17:51;5.70;73.30
37052;DHT22;22964;52.272;13.356;2024-01-16T14:20:18;5.70;73.30
37052;DHT22;22964;52.272;13.356;2024-01-16T14:22:59;5.70;73.10
37052;DHT22;22964;52.272;13.356;2024-01-16T14:25:26;5.70;72.90
37052;DHT22;22964;52.272;13.356;2024-01-16T14:28:01;5.70;73.00
37052;DHT22;22964;52.272;13.356;2024-01-16T14:30:34;5.70;72.80
37052;DHT22;22964;52.272;13.356;2024-01-16T14:33:02;5.70;72.80
37052;DHT22;22964;52.272;13.356;2024-01-16T14:35:28;5.70;72.90
37052;DHT22;22964;52.272;13.356;2024-01-16T14:37:54;5.70;72.80
37052;DHT22;22964;52.272;13.356;2024-01-16T14:40:19;5.70;72.80
37052;DHT22;22964;52.272;13.356;2024-01-16T14:42:55;5.70;72.70
37052;DHT22;22964;52.272;13.356;2024-01-16T14:45:23;5.60;72.70
37052;DHT22;22964;52.272;13.356;2024-01-16T14:47:49;5.60;72.90
37052;DHT22;22964;52.272;13.356;2024-01-16T14:50:17;5.60;72.90
37052;DHT22;22964;52.272;13.356;2024-01-16T14:52:47;5.70;73.00
37052;DHT22;22964;52.272;13.356;2024-01-16T14:55:13;5.60;72.90
37052;DHT22;22964;52.272;13.356;2024-01-16T14:57:39;5.60;73.00
37052;DHT22;22964;52.272;13.356;2024-01-16T15:00:12;5.60;72.90
37052;DHT22;22964;52.272;13.356;2024-01-16T15:02:48;5.70;72.80
37052;DHT22;22964;52.272;13.356;2024-01-16T15:05:17;5.70;72.90
37052;DHT22;22964;52.272;13.356;2024-01-16T15:07:45;5.60;72.80
37052;DHT22;22964;52.272;13.356;2024-01-16T15:10:11;5.60;72.80
37052;DHT22;22964;52.272;13.356;2024-01-16T15:12:38;5.70;72.70
37052;DHT22;22964;52.272;13.356;2024-01-16T15:15:09;5.60;72.70
37052;DHT22;22964;52.272;13.356;2024-01-16T15:17:36;5.70;72.60
37052;DHT22;22964;52.272;13.356;2024-01-16T15:20:02;5.70;72.60
37052;DHT22;22964;52.272;13.356;2024-01-16T15:22:29;5.60;72.40
37052;DHT22;22964;52.272;13.356;2024-01-16T15:24:57;5.70;72.50
37052;DHT22;22964;52.272;13.356;2024-01-16T15:27:23;5.60;72.30
37052;DHT22;22964;52.272;13.356;2024-01-16T15:29:49;5.60;72.30
37052;DHT22;22964;52.272;13.356;2024-01-16T15:32:15;5.60;72.40
37052;DHT22;22964;52.272;13.356;2024-01-16T15:34:41;5.60;72.60
37052;DHT22;22964;52.272;13.356;2024-01-16T15:37:07;5.60;72.70
37052;DHT22;22964;52.272;13.356;2024-01-16T15:39:32;5.60;72.90
37052;DHT22;22964;52.272;13.356;2024-01-16T15:41:58;5.50;73.00
37052;DHT22;22964;52.272;13.356;2024-01-16T15:44:24;5.50;73.20